createdAt,value
2018-09-17T00:00:37.982Z,101072.38
2018-09-17T00:03:11.412Z,101071.20
2018-09-17T00:05:44.767Z,101080.67
2018-09-17T00:08:18.144Z,101080.23
2018-09-17T00:10:51.523Z,101080.27
2018-09-17T00:13:24.893Z,101080.34
2018-09-17T00:15:58.283Z,101086.78
2018-09-17T00:18:31.679Z,101080.83
2018-09-17T00:21:05.080Z,101087.30
2018-09-17T00:23:38.500Z,101092.07
2018-09-17T00:26:11.871Z,101087.09
2018-09-17T00:28:45.243Z,101081.30
2018-09-17T00:31:18.682Z,101081.69
2018-09-17T00:33:52.069Z,101075.38
2018-09-17T00:36:25.442Z,101077.51
2018-09-17T00:38:58.895Z,101073.36
2018-09-17T00:41:32.261Z,101072.09
2018-09-17T00:44:05.979Z,101065.20
2018-09-17T00:46:39.334Z,101064.75
2018-09-17T00:49:12.824Z,101069.03
2018-09-17T00:51:46.227Z,101069.96
2018-09-17T00:54:20.737Z,101063.72
2018-09-17T00:56:54.109Z,101059.03
2018-09-17T00:59:27.533Z,101064.11
2018-09-17T01:02:07.603Z,101057.36
2018-09-17T01:04:41.036Z,101062.03
2018-09-17T01:07:14.411Z,101060.77
2018-09-17T01:09:47.803Z,101068.97
2018-09-17T01:12:21.284Z,101066.88
2018-09-17T01:14:54.659Z,101070.27
2018-09-17T01:17:28.002Z,101075.83
2018-09-17T01:20:01.425Z,101072.13
2018-09-17T01:22:34.808Z,101076.94
2018-09-17T01:25:08.198Z,101071.83
2018-09-17T01:27:41.556Z,101070.55
2018-09-17T01:30:15.003Z,101066.70
2018-09-17T01:32:48.356Z,101068.47
2018-09-17T01:35:21.755Z,101066.40
2018-09-17T01:37:55.204Z,101062.16
2018-09-17T01:40:28.630Z,101051.94
2018-09-17T01:43:01.995Z,101053.74
2018-09-17T01:45:35.487Z,101050.79
2018-09-17T01:48:08.878Z,101041.88
2018-09-17T01:50:42.257Z,101038.92
2018-09-17T01:53:15.634Z,101031.34
2018-09-17T01:55:49.020Z,101030.02
2018-09-17T01:58:22.383Z,101035.22
2018-09-17T02:00:55.775Z,101029.75
2018-09-17T02:03:29.136Z,101028.16
2018-09-17T02:06:02.528Z,101030.75
2018-09-17T02:08:35.971Z,101029.12
2018-09-17T02:11:09.337Z,101029.64
2018-09-17T02:13:42.739Z,101030.56
2018-09-17T02:16:16.353Z,101025.01
2018-09-17T02:18:49.838Z,101024.57
2018-09-17T02:21:23.253Z,101029.28
2018-09-17T02:23:56.607Z,101029.28
2018-09-17T02:26:30.021Z,101028.44
2018-09-17T02:29:03.376Z,101034.39
2018-09-17T02:31:36.778Z,101029.28
2018-09-17T02:34:10.161Z,101030.56
2018-09-17T02:36:43.655Z,101036.95
2018-09-17T02:39:17.016Z,101034.88
2018-09-17T02:41:50.677Z,101048.57
2018-09-17T02:44:24.050Z,101050.76
2018-09-17T02:46:57.439Z,101054.63
2018-09-17T02:49:30.818Z,101057.59
2018-09-17T02:52:04.254Z,101067.81
2018-09-17T02:54:37.619Z,101056.38
2018-09-17T02:57:10.988Z,101066.61
2018-09-17T02:59:44.360Z,101064.48
2018-09-17T03:02:17.748Z,101071.31
2018-09-17T03:04:51.122Z,101065.29
2018-09-17T03:07:24.616Z,101062.73
2018-09-17T03:09:58.031Z,101061.86
2018-09-17T03:12:31.443Z,101069.56
2018-09-17T03:15:16.163Z,101064.48
2018-09-17T03:17:49.560Z,101065.36
2018-09-17T03:20:22.937Z,101067.55
2018-09-17T03:22:56.315Z,101067.98
2018-09-17T03:25:29.709Z,101060.33
2018-09-17T03:28:03.145Z,101053.97
2018-09-17T03:30:36.529Z,101051.05
2018-09-17T03:33:09.945Z,101051.09
2018-09-17T03:35:43.324Z,101052.36
2018-09-17T03:38:48.687Z,101050.21
2018-09-17T03:41:22.078Z,101054.41
2018-09-17T03:43:55.516Z,101051.05
2018-09-17T03:46:28.934Z,101052.36
2018-09-17T03:49:02.298Z,101050.72
2018-09-17T03:51:35.668Z,101049.54
2018-09-17T03:54:09.064Z,101049.14
2018-09-17T03:56:42.453Z,101046.98
2018-09-17T03:59:15.860Z,101042.75
2018-09-17T04:01:50.151Z,101047.02
2018-09-17T04:04:23.532Z,101045.00
2018-09-17T04:06:56.947Z,101049.77
2018-09-17T04:09:30.434Z,101053.25
2018-09-17T04:12:03.971Z,101048.21
2018-09-17T04:14:37.341Z,101051.48
2018-09-17T04:17:10.843Z,101052.66
2018-09-17T04:19:44.210Z,101053.91
2018-09-17T04:22:17.615Z,101055.55
2018-09-17T04:24:51.022Z,101052.63
2018-09-17T04:27:24.413Z,101046.72
2018-09-17T04:29:57.788Z,101042.42
2018-09-17T04:32:31.261Z,101042.45
2018-09-17T04:35:05.783Z,101041.30
2018-09-17T04:37:39.942Z,101047.74
2018-09-17T04:40:13.392Z,101049.89
2018-09-17T04:42:46.800Z,101052.01
2018-09-17T04:45:20.198Z,101054.13
2018-09-17T04:47:53.579Z,101063.06
2018-09-17T04:50:26.939Z,101069.45
2018-09-17T04:53:00.655Z,101062.19
2018-09-17T04:55:34.116Z,101062.59
2018-09-17T04:58:07.513Z,101063.44
2018-09-17T05:00:40.899Z,101068.11
2018-09-17T05:03:14.328Z,101071.03
2018-09-17T05:05:47.683Z,101072.28
2018-09-17T05:08:21.149Z,101070.60
2018-09-17T05:10:54.530Z,101074.37
2018-09-17T05:13:28.027Z,101073.06
2018-09-17T05:16:01.298Z,101076.05
2018-09-17T05:18:34.691Z,101078.98
2018-09-17T05:21:08.125Z,101076.83
2018-09-17T05:23:41.521Z,101085.30
2018-09-17T05:26:14.877Z,101081.37
2018-09-17T05:28:48.259Z,101084.23
2018-09-17T05:31:21.659Z,101095.25
2018-09-17T05:33:55.018Z,101087.95
2018-09-17T05:36:28.538Z,101095.95
2018-09-17T05:39:01.923Z,101107.86
2018-09-17T05:41:35.292Z,101107.31
2018-09-17T05:44:08.671Z,101103.44
2018-09-17T05:46:42.023Z,101101.28
2018-09-17T05:49:15.395Z,101102.09
2018-09-17T05:51:48.850Z,101103.25
2018-09-17T05:54:22.246Z,101102.30
2018-09-17T05:56:55.618Z,101103.18
2018-09-17T05:59:29.050Z,101109.09
2018-09-17T06:02:02.383Z,101104.37
2018-09-17T06:04:35.786Z,101103.42
2018-09-17T06:07:09.251Z,101098.63
2018-09-17T06:09:42.605Z,101104.98
2018-09-17T06:12:15.966Z,101098.06
2018-09-17T06:14:49.359Z,101112.45
2018-09-17T06:17:22.766Z,101109.77
2018-09-17T06:19:56.175Z,101112.54
2018-09-17T06:22:29.534Z,101099.55
2018-09-17T06:25:03.328Z,101100.19
2018-09-17T06:27:36.737Z,101105.08
2018-09-17T06:30:10.122Z,101114.27
2018-09-17T06:32:43.567Z,101120.77
2018-09-17T06:35:16.917Z,101125.52
2018-09-17T06:37:50.319Z,101122.29
2018-09-17T06:40:23.654Z,101120.57
2018-09-17T06:42:57.090Z,101124.44
2018-09-17T06:45:30.466Z,101123.68
2018-09-17T06:48:03.906Z,101126.51
2018-09-17T06:50:37.276Z,101130.53
2018-09-17T06:53:10.598Z,101131.56
2018-09-17T06:55:43.951Z,101129.13
2018-09-17T06:58:17.274Z,101132.39
2018-09-17T07:00:50.630Z,101131.31
2018-09-17T07:03:24.022Z,101128.91
2018-09-17T07:05:58.520Z,101130.27
2018-09-17T07:08:31.855Z,101127.31
2018-09-17T07:11:05.337Z,101137.67
2018-09-17T07:13:38.671Z,101133.11
2018-09-17T07:16:12.120Z,101124.09
2018-09-17T07:18:45.477Z,101123.98
2018-09-17T07:21:18.834Z,101126.48
2018-09-17T07:23:52.186Z,101136.63
2018-09-17T07:26:25.716Z,101146.74
2018-09-17T07:28:59.452Z,101146.38
2018-09-17T07:31:32.876Z,101147.30
2018-09-17T07:34:06.358Z,101148.52
2018-09-17T07:36:39.759Z,101144.09
2018-09-17T07:39:13.117Z,101136.45
2018-09-17T07:41:46.571Z,101138.13
2018-09-17T07:44:19.962Z,101134.73
2018-09-17T07:46:53.404Z,101134.09
2018-09-17T07:49:26.763Z,101130.14
2018-09-17T07:52:00.115Z,101129.38
2018-09-17T07:54:33.478Z,101120.88
2018-09-17T07:57:07.014Z,101117.38
2018-09-17T07:59:40.471Z,101120.45
2018-09-17T08:02:14.177Z,101115.42
2018-09-17T08:04:47.541Z,101118.56
2018-09-17T08:07:20.926Z,101120.47
2018-09-17T08:09:54.354Z,101115.33
2018-09-17T08:12:27.779Z,101108.88
2018-09-17T08:15:01.132Z,101108.27
2018-09-17T08:17:34.481Z,101103.76
2018-09-17T08:20:08.145Z,101103.64
2018-09-17T08:22:41.824Z,101107.45
2018-09-17T08:25:15.177Z,101109.55
2018-09-17T08:27:48.498Z,101114.25
2018-09-17T08:30:21.846Z,101108.73
2018-09-17T08:32:55.170Z,101108.83
2018-09-17T08:35:28.529Z,101107.96
2018-09-17T08:38:01.864Z,101113.17
2018-09-17T08:40:35.222Z,101113.27
2018-09-17T08:43:08.541Z,101107.55
2018-09-17T08:45:41.928Z,101108.20
2018-09-17T08:48:15.205Z,101109.78
2018-09-17T08:50:48.567Z,101110.88
2018-09-17T08:53:21.982Z,101110.28
2018-09-17T08:56:04.578Z,101113.33
2018-09-17T08:58:43.349Z,101111.45
2018-09-17T09:03:59.800Z,101104.45
2018-09-17T09:06:38.394Z,101099.77
2018-09-17T09:09:12.864Z,101107.99
2018-09-17T09:11:52.147Z,101101.23
2018-09-17T09:14:30.788Z,101107.42
2018-09-17T09:17:04.170Z,101100.45
2018-09-17T09:19:37.582Z,101103.61
2018-09-17T09:22:10.944Z,101097.80
2018-09-17T09:24:44.273Z,101099.38
2018-09-17T09:27:17.615Z,101100.55
2018-09-17T09:29:50.954Z,101098.90
2018-09-17T09:32:24.358Z,101092.41
2018-09-17T09:34:57.689Z,101087.44
2018-09-17T09:37:31.157Z,101082.02
2018-09-17T09:40:04.580Z,101083.47
2018-09-17T09:42:37.951Z,101078.17
2018-09-17T09:45:11.282Z,101075.91
2018-09-17T09:47:45.270Z,101076.12
2018-09-17T09:50:18.595Z,101066.89
2018-09-17T09:52:52.017Z,101071.42
2018-09-17T09:55:25.334Z,101070.87
2018-09-17T09:57:58.690Z,101073.07
2018-09-17T10:01:40.991Z,101071.64
2018-09-17T10:04:19.778Z,101075.31
2018-09-17T10:06:53.534Z,101072.19
2018-09-17T10:09:32.285Z,101067.63
2018-09-17T10:12:10.805Z,101068.20
2018-09-17T10:14:49.440Z,101070.96
2018-09-17T10:17:27.913Z,101060.45
2018-09-17T10:20:01.255Z,101057.73
2018-09-17T10:22:34.671Z,101048.26
2018-09-17T10:25:08.002Z,101051.60
2018-09-17T10:27:41.368Z,101044.95
2018-09-17T10:30:14.741Z,101049.45
2018-09-17T10:32:48.093Z,101054.47
2018-09-17T10:35:21.425Z,101052.41
2018-09-17T10:37:54.793Z,101057.65
2018-09-17T10:40:28.120Z,101051.80
2018-09-17T10:43:01.484Z,101052.61
2018-09-17T10:45:34.870Z,101054.16
2018-09-17T10:48:08.238Z,101054.77
2018-09-17T10:50:41.571Z,101050.22
2018-09-17T10:53:14.917Z,101047.50
2018-09-17T10:55:48.242Z,101044.64
2018-09-17T10:58:21.608Z,101047.75
2018-09-17T11:00:54.941Z,101037.53
2018-09-17T11:03:28.282Z,101036.37
2018-09-17T11:06:01.623Z,101040.30
2018-09-17T11:08:34.959Z,101041.98
2018-09-17T11:11:08.362Z,101034.70
2018-09-17T11:13:41.720Z,101039.09
2018-09-17T11:16:15.054Z,101036.23
2018-09-17T11:18:48.409Z,101028.52
2018-09-17T11:21:21.748Z,101030.78
2018-09-17T11:23:55.105Z,101030.19
2018-09-17T11:26:28.421Z,101029.34
2018-09-17T11:29:01.778Z,101023.16
2018-09-17T11:31:35.157Z,101028.16
2018-09-17T11:34:08.496Z,101031.84
2018-09-17T11:36:41.831Z,101028.63
2018-09-17T11:39:15.173Z,101024.09
2018-09-17T11:41:48.514Z,101021.69
2018-09-17T11:44:21.868Z,101022.62
2018-09-17T11:46:55.188Z,101017.58
2018-09-17T11:49:28.530Z,101014.52
2018-09-17T11:52:01.872Z,101011.89
2018-09-17T11:54:35.247Z,101018.49
2018-09-17T11:57:08.572Z,101001.71
2018-09-17T11:59:41.937Z,101004.19
2018-09-17T12:02:20.512Z,101004.19
2018-09-17T12:04:56.856Z,100998.53
2018-09-17T12:07:39.695Z,100985.03
2018-09-17T12:10:13.073Z,100987.27
2018-09-17T12:12:46.404Z,100974.20
2018-09-17T12:15:19.782Z,100978.81
2018-09-17T12:17:53.133Z,100980.46
2018-09-17T12:20:26.494Z,100976.31
2018-09-17T12:22:59.829Z,100971.70
2018-09-17T12:25:33.234Z,100969.93
2018-09-17T12:28:06.924Z,100965.52
2018-09-17T12:30:40.289Z,100964.02
2018-09-17T12:33:13.626Z,100961.34
2018-09-17T12:35:46.989Z,100960.40
2018-09-17T12:38:20.793Z,100958.83
2018-09-17T12:40:54.160Z,100952.46
2018-09-17T12:43:27.494Z,100955.52
2018-09-17T12:46:00.901Z,100952.20
2018-09-17T12:48:34.214Z,100953.41
2018-09-17T12:51:07.579Z,100950.95
2018-09-17T12:53:40.959Z,100956.73
2018-09-17T12:56:14.338Z,100959.13
2018-09-17T12:58:47.703Z,100948.58
2018-09-17T13:01:21.050Z,100941.01
2018-09-17T13:03:54.403Z,100941.72
2018-09-17T13:06:27.754Z,100938.57
2018-09-17T13:09:01.123Z,100940.41
2018-09-17T13:11:34.500Z,100935.61
2018-09-17T13:14:07.888Z,100936.62
2018-09-17T13:16:41.263Z,100934.05
2018-09-17T13:19:14.594Z,100929.06
2018-09-17T13:21:47.965Z,100929.70
2018-09-17T13:24:21.318Z,100923.63
2018-09-17T13:26:54.707Z,100923.09
2018-09-17T13:29:28.036Z,100924.97
2018-09-17T13:32:01.451Z,100930.05
2018-09-17T13:34:34.757Z,100925.94
2018-09-17T13:37:08.165Z,100920.44
2018-09-17T13:39:41.536Z,100916.95
2018-09-17T13:42:14.925Z,100924.97
2018-09-17T13:44:48.272Z,100922.07
2018-09-17T13:47:21.658Z,100919.95
2018-09-17T13:49:55.059Z,100929.08
2018-09-17T13:52:28.460Z,100918.92
2018-09-17T13:55:01.915Z,100912.74
2018-09-17T13:57:35.326Z,100916.83
2018-09-17T14:00:08.704Z,100911.77
2018-09-17T14:02:42.164Z,100912.27
2018-09-17T14:05:15.531Z,100915.86
2018-09-17T14:07:48.883Z,100910.33
2018-09-17T14:10:22.331Z,100911.22
2018-09-17T14:12:55.641Z,100909.80
2018-09-17T14:15:28.998Z,100912.02
2018-09-17T14:18:02.355Z,100903.17
2018-09-17T14:20:35.709Z,100901.56
2018-09-17T14:23:09.333Z,100902.53
2018-09-17T14:25:42.754Z,100901.94
2018-09-17T14:28:16.199Z,100900.98
2018-09-17T14:30:49.690Z,100897.11
2018-09-17T14:33:28.413Z,100899.09
2018-09-17T14:36:02.054Z,100897.13
2018-09-17T14:38:35.645Z,100904.39
2018-09-17T14:41:09.101Z,100899.35
2018-09-17T14:43:42.478Z,100894.73
2018-09-17T14:46:16.408Z,100895.86
2018-09-17T14:48:51.234Z,100896.35
2018-09-17T14:51:24.764Z,100901.25
2018-09-17T14:54:00.892Z,100897.53
2018-09-17T14:56:34.416Z,100888.72
2018-09-17T14:59:07.789Z,100886.34
2018-09-17T15:01:41.205Z,100888.37
2018-09-17T15:04:14.674Z,100886.72
2018-09-17T15:06:48.111Z,100885.56
2018-09-17T15:09:21.511Z,100887.94
2018-09-17T15:11:55.054Z,100885.81
2018-09-17T15:14:28.475Z,100884.65
2018-09-17T15:17:01.952Z,100881.59
2018-09-17T15:19:35.287Z,100880.80
2018-09-17T15:22:08.682Z,100881.14
2018-09-17T15:24:42.031Z,100882.92
2018-09-17T15:27:15.485Z,100877.95
2018-09-17T15:29:48.861Z,100878.06
2018-09-17T15:32:22.377Z,100867.95
2018-09-17T15:34:55.750Z,100873.42
2018-09-17T15:37:29.254Z,100863.56
2018-09-17T15:40:02.658Z,100857.98
2018-09-17T15:42:35.974Z,100865.23
2018-09-17T15:45:09.298Z,100860.37
2018-09-17T15:47:42.645Z,100851.80
2018-09-17T15:50:16.046Z,100854.55
2018-09-17T15:52:49.392Z,100848.48
2018-09-17T15:55:22.834Z,100848.86
2018-09-17T15:57:56.302Z,100850.63
2018-09-17T16:00:29.606Z,100841.59
2018-09-17T16:03:03.194Z,100843.14
2018-09-17T16:05:36.660Z,100843.14
2018-09-17T16:08:11.372Z,100839.00
2018-09-17T16:10:56.350Z,100841.02
2018-09-17T16:13:30.109Z,100839.10
2018-09-17T16:16:03.485Z,100841.95
2018-09-17T16:18:36.834Z,100838.95
2018-09-17T16:21:10.217Z,100831.45
2018-09-17T16:23:43.543Z,100835.84
2018-09-17T16:26:17.383Z,100833.84
2018-09-17T16:28:50.762Z,100836.91
2018-09-17T16:31:24.210Z,100840.13
2018-09-17T16:33:58.154Z,100837.27
2018-09-17T16:36:31.489Z,100832.12
2018-09-17T16:39:07.355Z,100829.48
2018-09-17T16:41:40.688Z,100834.23
2018-09-17T16:44:14.051Z,100828.63
2018-09-17T16:46:47.474Z,100831.22
2018-09-17T16:49:21.027Z,100837.10
2018-09-17T16:51:54.363Z,100838.41
2018-09-17T16:54:27.710Z,100834.68
2018-09-17T16:57:01.114Z,100836.29
2018-09-17T16:59:34.492Z,100839.59
2018-09-17T17:02:07.821Z,100835.38
2018-09-17T17:04:41.204Z,100839.97
2018-09-17T17:07:14.563Z,100850.95
2018-09-17T17:09:47.921Z,100846.50
2018-09-17T17:12:21.504Z,100848.98
2018-09-17T17:14:54.856Z,100851.16
2018-09-17T17:17:28.177Z,100860.19
2018-09-17T17:20:01.518Z,100861.50
2018-09-17T17:22:35.724Z,100857.23
2018-09-17T17:25:09.103Z,100858.16
2018-09-17T17:27:42.642Z,100855.45
2018-09-17T17:30:16.245Z,100865.13
2018-09-17T17:32:50.097Z,100856.88
2018-09-17T17:35:23.814Z,100870.59
2018-09-17T17:37:57.685Z,100863.73
2018-09-17T17:40:31.307Z,100869.38
2018-09-17T17:43:04.981Z,100867.52
2018-09-17T17:45:38.551Z,100865.13
2018-09-17T17:48:11.882Z,100871.95
2018-09-17T17:50:45.498Z,100867.14
2018-09-17T17:53:19.227Z,100870.59
2018-09-17T17:55:53.102Z,100869.11
2018-09-17T17:58:26.724Z,100867.06
2018-09-17T18:01:00.455Z,100869.45
2018-09-17T18:03:34.022Z,100871.86
2018-09-17T18:06:07.398Z,100869.15
2018-09-17T18:08:41.146Z,100864.69
2018-09-17T18:11:14.881Z,100862.73
2018-09-17T18:13:49.133Z,100862.69
2018-09-17T18:16:26.951Z,100867.55
2018-09-17T18:19:01.888Z,100868.98
2018-09-17T18:21:35.571Z,100870.42
2018-09-17T18:24:09.121Z,100866.56
2018-09-17T18:26:42.654Z,100867.81
2018-09-17T18:29:16.320Z,100872.30
2018-09-17T18:31:49.703Z,100869.45
2018-09-17T18:34:23.237Z,100867.03
2018-09-17T18:36:56.847Z,100860.56
2018-09-17T18:39:30.817Z,100858.85
2018-09-17T18:42:04.189Z,100860.62
2018-09-17T18:44:38.101Z,100860.03
2018-09-17T18:47:11.462Z,100853.04
2018-09-17T18:49:45.230Z,100857.14
2018-09-17T18:52:18.660Z,100858.77
2018-09-17T18:54:52.347Z,100861.45
2018-09-17T18:57:26.057Z,100861.38
2018-09-17T18:59:59.452Z,100854.22
2018-09-17T19:02:32.971Z,100853.61
2018-09-17T19:05:06.463Z,100860.89
2018-09-17T19:07:40.896Z,100856.38
2018-09-17T19:10:14.348Z,100856.61
2018-09-17T19:12:47.966Z,100848.11
2018-09-17T19:15:26.711Z,100843.14
2018-09-17T19:18:05.390Z,100853.09
2018-09-17T19:20:38.979Z,100850.41
2018-09-17T19:23:17.386Z,100858.62
2018-09-17T19:25:50.886Z,100857.84
2018-09-17T19:28:29.378Z,100855.99
2018-09-17T19:31:02.779Z,100858.39
2018-09-17T19:33:36.108Z,100851.28
2018-09-17T19:36:09.848Z,100854.91
2018-09-17T19:38:48.475Z,100854.30
2018-09-17T19:41:22.308Z,100849.78
2018-09-17T19:43:56.384Z,100850.08
2018-09-17T19:46:29.694Z,100841.76
2018-09-17T19:49:03.568Z,100846.35
2018-09-17T19:51:42.251Z,100846.23
2018-09-17T19:54:15.593Z,100837.92
2018-09-17T19:56:48.934Z,100838.97
2018-09-17T19:59:27.538Z,100838.98
2018-09-17T20:02:00.885Z,100839.61
2018-09-17T20:04:39.714Z,100830.66
2018-09-17T20:07:13.030Z,100833.95
2018-09-17T20:12:44.551Z,100843.84
2018-09-17T20:15:17.873Z,100843.63
2018-09-17T20:17:51.217Z,100845.19
2018-09-17T20:20:24.598Z,100847.89
2018-09-17T20:22:57.992Z,100842.73
2018-09-17T20:25:31.406Z,100840.27
2018-09-17T20:28:04.730Z,100841.68
2018-09-17T20:30:38.083Z,100842.70
2018-09-17T20:33:11.441Z,100841.47
2018-09-17T20:35:44.818Z,100843.41
2018-09-17T20:38:18.173Z,100841.39
2018-09-17T20:40:51.550Z,100831.20
2018-09-17T20:43:24.882Z,100830.22
2018-09-17T20:45:58.229Z,100829.50
2018-09-17T20:48:31.604Z,100825.50
2018-09-17T20:51:04.927Z,100824.32
2018-09-17T20:53:38.252Z,100823.83
2018-09-17T20:56:11.642Z,100824.63
2018-09-17T20:58:44.980Z,100821.78
2018-09-17T21:01:18.437Z,100813.78
2018-09-17T21:03:51.763Z,100814.91
2018-09-17T21:06:25.177Z,100813.28
2018-09-17T21:08:58.507Z,100811.53
2018-09-17T21:11:31.891Z,100814.78
2018-09-17T21:14:05.622Z,100813.11
2018-09-17T21:16:39.362Z,100815.79
2018-09-17T21:19:12.685Z,100816.31
2018-09-17T21:21:46.072Z,100820.39
2018-09-17T21:24:19.367Z,100815.73
2018-09-17T21:26:52.745Z,100823.45
2018-09-17T21:29:26.071Z,100817.75
2018-09-17T21:31:59.426Z,100815.35
2018-09-17T21:34:32.802Z,100819.25
2018-09-17T21:37:06.300Z,100815.04
2018-09-17T21:39:39.581Z,100812.16
2018-09-17T21:42:12.946Z,100815.73
2018-09-17T21:44:46.341Z,100811.08
2018-09-17T21:47:19.761Z,100809.89
2018-09-17T21:49:53.091Z,100804.40
2018-09-17T21:52:26.440Z,100806.20
2018-09-17T21:54:59.776Z,100793.48
2018-09-17T21:57:33.114Z,100796.84
2018-09-17T22:00:06.489Z,100797.08
2018-09-17T22:02:39.843Z,100798.50
2018-09-17T22:05:13.221Z,100795.61
2018-09-17T22:07:46.602Z,100794.56
2018-09-17T22:10:19.954Z,100792.85
2018-09-17T22:12:53.297Z,100795.04
2018-09-17T22:15:26.614Z,100792.47
2018-09-17T22:17:59.981Z,100787.84
2018-09-17T22:20:33.559Z,100790.09
2018-09-17T22:23:06.953Z,100785.95
2018-09-17T22:25:40.280Z,100784.73
2018-09-17T22:28:13.657Z,100781.75
2018-09-17T22:30:46.989Z,100782.71
2018-09-17T22:33:20.401Z,100781.14
2018-09-17T22:35:53.724Z,100778.28
2018-09-17T22:38:27.084Z,100774.97
2018-09-17T22:41:00.419Z,100773.88
2018-09-17T22:43:33.798Z,100770.21
2018-09-17T22:46:07.143Z,100766.91
2018-09-17T22:48:40.506Z,100761.38
2018-09-17T22:51:13.848Z,100761.02
2018-09-17T22:53:47.196Z,100756.78
2018-09-17T22:56:20.542Z,100757.39
2018-09-17T22:58:53.885Z,100756.84
2018-09-17T23:01:27.255Z,100756.93
2018-09-17T23:04:00.593Z,100757.47
2018-09-17T23:06:33.928Z,100763.98
2018-09-17T23:09:08.921Z,100754.34
2018-09-17T23:11:42.245Z,100759.17
2018-09-17T23:14:15.577Z,100761.50
2018-09-17T23:16:48.878Z,100764.58
2018-09-17T23:19:22.738Z,100761.33
2018-09-17T23:21:56.075Z,100755.37
2018-09-17T23:24:29.401Z,100757.17
2018-09-17T23:27:02.726Z,100749.39
2018-09-17T23:29:36.045Z,100750.31
2018-09-17T23:32:09.382Z,100745.27
2018-09-17T23:34:42.787Z,100744.96
2018-09-17T23:37:16.189Z,100740.45
2018-09-17T23:39:49.513Z,100738.12
2018-09-17T23:42:22.809Z,100739.02
2018-09-17T23:44:56.129Z,100738.73
2018-09-17T23:47:29.442Z,100741.45
2018-09-17T23:50:02.763Z,100739.72
2018-09-17T23:52:36.058Z,100737.15
2018-09-17T23:55:09.431Z,100731.66
2018-09-17T23:57:42.740Z,100735.20
